KCBK/CBK METAR and TAF weather

Enter ICAO airport designator
Station Type Date Time Source
KCBK METAR 2021/08/05 04:15 UTC NOAA

KCBK 050415Z AUTO 22005KT 10SM OVC080 19/18 A3015 RMK AO2 T01910176


Station Type Date Time Source
KCBK Decoded METAR 2021/08/05 04:15 UTC NOAA

Station name not available
Aug 05, 2021 - 12:15 AM EDT / 2021.08.05 0415 UTC
Wind: from the SW (220 degrees) at 6 MPH (5 KT):0
Visibility: 10 mile(s):0
Sky conditions: overcast
Temperature: 66.4 F (19.1 C)
Dew Point: 63.7 F (17.6 C)
Relative Humidity: 91%
Pressure (altimeter): 30.15 in. Hg (1020 hPa)
ob: KCBK 050415Z AUTO 22005KT 10SM OVC080 19/18 A3015 RMK AO2 T01910176
cycle: 4

Station Type Date Time Source
KCBK TAF UTC NOAA

Error!

Example: see airport list